createdAt,value
2022-08-17T00:00:01.519Z,20.99
2022-08-17T00:01:00.627Z,20.99
2022-08-17T00:02:24.131Z,20.96
2022-08-17T00:03:01.479Z,20.96
2022-08-17T00:04:00.429Z,20.93
2022-08-17T00:05:00.435Z,20.91
2022-08-17T00:06:00.716Z,20.89
2022-08-17T00:07:00.377Z,20.87
2022-08-17T00:08:00.404Z,20.86
2022-08-17T00:09:00.527Z,20.86
2022-08-17T00:10:00.412Z,20.86
2022-08-17T00:11:00.432Z,20.84
2022-08-17T00:12:40.576Z,20.83
2022-08-17T00:13:01.463Z,20.80
2022-08-17T00:14:00.299Z,20.80
2022-08-17T00:15:00.292Z,20.81
2022-08-17T00:16:00.570Z,20.84
2022-08-17T00:17:00.352Z,20.84
2022-08-17T00:18:00.269Z,20.86
2022-08-17T00:19:07.499Z,20.83
2022-08-17T00:20:01.223Z,20.81
2022-08-17T00:21:00.258Z,20.80
2022-08-17T00:22:31.671Z,20.79
2022-08-17T00:23:01.322Z,20.77
2022-08-17T00:24:00.177Z,20.77
2022-08-17T00:25:00.196Z,20.77
2022-08-17T00:26:00.122Z,20.74
2022-08-17T00:27:00.239Z,20.71
2022-08-17T00:28:00.139Z,20.71
2022-08-17T00:29:00.144Z,20.69
2022-08-17T00:30:00.147Z,20.68
2022-08-17T00:31:00.042Z,20.68
2022-08-17T00:32:00.120Z,20.66
2022-08-17T00:33:23.483Z,20.65
2022-08-17T00:34:01.013Z,20.66
2022-08-17T00:34:59.993Z,20.66
2022-08-17T00:36:04.092Z,20.64
2022-08-17T00:37:00.005Z,20.64
2022-08-17T00:38:08.113Z,20.62
2022-08-17T00:39:00.999Z,20.61
2022-08-17T00:40:00.023Z,20.59
2022-08-17T00:41:00.192Z,20.61
2022-08-17T00:41:59.919Z,20.59
2022-08-17T00:42:59.914Z,20.58
2022-08-17T00:44:00.032Z,20.54
2022-08-17T00:44:59.948Z,20.53
2022-08-17T00:45:59.895Z,20.51
2022-08-17T00:46:59.847Z,20.53
2022-08-17T00:47:59.900Z,20.50
2022-08-17T00:48:59.843Z,20.50
2022-08-17T00:49:59.905Z,20.49
2022-08-17T00:50:59.809Z,20.46
2022-08-17T00:52:02.485Z,20.46
2022-08-17T00:53:00.780Z,20.42
2022-08-17T00:53:59.753Z,20.39
2022-08-17T00:54:59.871Z,20.38
2022-08-17T00:55:59.762Z,20.35
2022-08-17T00:56:59.803Z,20.34
2022-08-17T00:57:59.734Z,20.34
2022-08-17T00:58:59.719Z,20.33
2022-08-17T01:00:02.130Z,20.31
2022-08-17T01:00:59.726Z,20.31
2022-08-17T01:01:59.707Z,20.34
2022-08-17T01:02:59.787Z,20.38
2022-08-17T01:03:59.834Z,20.41
2022-08-17T01:04:59.627Z,20.42
2022-08-17T01:05:59.797Z,20.42
2022-08-17T01:06:59.574Z,20.41
2022-08-17T01:07:59.574Z,20.39
2022-08-17T01:08:59.630Z,20.39
2022-08-17T01:09:59.587Z,20.35
2022-08-17T01:11:01.738Z,20.33
2022-08-17T01:11:59.505Z,20.30
2022-08-17T01:12:59.504Z,20.28
2022-08-17T01:13:59.515Z,20.24
2022-08-17T01:14:59.487Z,20.20
2022-08-17T01:15:59.453Z,20.16
2022-08-17T01:16:59.460Z,20.15
2022-08-17T01:18:35.718Z,20.15
2022-08-17T01:19:00.435Z,20.13
2022-08-17T01:19:59.447Z,20.13
2022-08-17T01:20:59.494Z,20.12
2022-08-17T01:21:59.377Z,20.13
2022-08-17T01:22:59.523Z,20.10
2022-08-17T01:23:59.406Z,20.10
2022-08-17T01:24:59.347Z,20.09
2022-08-17T01:25:59.341Z,20.09
2022-08-17T01:26:59.357Z,20.08
2022-08-17T01:27:59.372Z,20.08
2022-08-17T01:28:59.273Z,20.08
2022-08-17T01:29:59.352Z,20.06
2022-08-17T01:31:36.242Z,20.06
2022-08-17T01:32:00.306Z,20.08
2022-08-17T01:32:59.219Z,20.05
2022-08-17T01:33:59.280Z,20.05
2022-08-17T01:34:59.249Z,20.06
2022-08-17T01:35:59.202Z,20.08
2022-08-17T01:37:00.671Z,20.08
2022-08-17T01:37:59.234Z,20.06
2022-08-17T01:38:59.158Z,20.06
2022-08-17T01:39:59.230Z,20.05
2022-08-17T01:40:59.275Z,20.03
2022-08-17T01:41:59.230Z,20.02
2022-08-17T01:42:59.106Z,20.02
2022-08-17T01:43:59.176Z,20.03
2022-08-17T01:44:59.162Z,20.05
2022-08-17T01:46:03.624Z,20.02
2022-08-17T01:47:00.044Z,20.02
2022-08-17T01:47:59.062Z,20.03
2022-08-17T01:48:59.230Z,20.02
2022-08-17T01:49:59.092Z,19.98
2022-08-17T01:50:59.052Z,19.97
2022-08-17T01:51:59.085Z,19.94
2022-08-17T01:52:59.016Z,19.94
2022-08-17T01:53:58.945Z,19.90
2022-08-17T01:54:58.988Z,19.88
2022-08-17T01:55:58.971Z,19.87
2022-08-17T01:56:58.892Z,19.87
2022-08-17T01:57:58.985Z,19.87
2022-08-17T01:58:58.900Z,19.86
2022-08-17T01:59:59.027Z,19.84
2022-08-17T02:01:00.114Z,19.84
2022-08-17T02:01:58.947Z,19.83
2022-08-17T02:02:58.998Z,19.78
2022-08-17T02:04:00.818Z,19.76
2022-08-17T02:04:58.822Z,19.73
2022-08-17T02:05:58.780Z,19.73
2022-08-17T02:07:20.215Z,19.76
2022-08-17T02:08:00.917Z,19.78
2022-08-17T02:09:02.893Z,19.75
2022-08-17T02:09:58.735Z,19.73
2022-08-17T02:10:58.743Z,19.72
2022-08-17T02:11:58.865Z,19.70
2022-08-17T02:12:58.741Z,19.70
2022-08-17T02:14:02.975Z,19.69
2022-08-17T02:14:59.683Z,19.68
2022-08-17T02:15:58.657Z,19.65
2022-08-17T02:16:58.711Z,19.65
2022-08-17T02:17:58.635Z,19.63
2022-08-17T02:18:58.637Z,19.61
2022-08-17T02:19:58.600Z,19.61
2022-08-17T02:20:58.608Z,19.58
2022-08-17T02:21:58.743Z,19.58
2022-08-17T02:22:58.593Z,19.57
2022-08-17T02:23:58.547Z,19.58
2022-08-17T02:25:02.196Z,19.58
2022-08-17T02:25:58.532Z,19.57
2022-08-17T02:26:58.509Z,19.55
2022-08-17T02:27:58.568Z,19.54
2022-08-17T02:28:58.473Z,19.53
2022-08-17T02:29:58.503Z,19.53
2022-08-17T02:31:02.506Z,19.53
2022-08-17T02:31:58.451Z,19.53
2022-08-17T02:32:58.448Z,19.53
2022-08-17T02:34:03.612Z,19.50
2022-08-17T02:34:59.533Z,19.51
2022-08-17T02:35:58.426Z,19.48
2022-08-17T02:36:58.380Z,19.47
2022-08-17T02:37:58.430Z,19.47
2022-08-17T02:38:58.348Z,19.46
2022-08-17T02:39:58.359Z,19.47
2022-08-17T02:40:58.486Z,19.46
2022-08-17T02:41:58.312Z,19.47
2022-08-17T02:42:58.307Z,19.48
2022-08-17T02:43:58.382Z,19.46
2022-08-17T02:44:58.283Z,19.42
2022-08-17T02:45:58.252Z,19.40
2022-08-17T02:46:58.410Z,19.39
2022-08-17T02:47:58.218Z,19.36
2022-08-17T02:48:58.243Z,19.36
2022-08-17T02:49:58.236Z,19.35
2022-08-17T02:50:58.198Z,19.32
2022-08-17T02:51:58.164Z,19.33
2022-08-17T02:53:02.046Z,19.32
2022-08-17T02:54:38.810Z,19.31
2022-08-17T02:54:59.155Z,19.29
2022-08-17T02:55:58.147Z,19.24
2022-08-17T02:56:58.149Z,19.24
2022-08-17T02:57:58.099Z,19.24
2022-08-17T02:58:58.082Z,19.24
2022-08-17T02:59:58.069Z,19.24
2022-08-17T03:00:58.061Z,19.25
2022-08-17T03:01:58.133Z,19.29
2022-08-17T03:02:58.050Z,19.31
2022-08-17T03:03:58.019Z,19.31
2022-08-17T03:04:58.040Z,19.32
2022-08-17T03:05:57.973Z,19.33
2022-08-17T03:06:57.971Z,19.33
2022-08-17T03:07:58.002Z,19.36
2022-08-17T03:08:57.985Z,19.38
2022-08-17T03:09:57.920Z,19.39
2022-08-17T03:10:57.940Z,19.39
2022-08-17T03:11:57.949Z,19.39
2022-08-17T03:12:57.911Z,19.36
2022-08-17T03:13:57.893Z,19.36
2022-08-17T03:14:57.926Z,19.36
2022-08-17T03:15:57.873Z,19.33
2022-08-17T03:16:57.879Z,19.33
2022-08-17T03:17:57.837Z,19.32
2022-08-17T03:18:57.823Z,19.33
2022-08-17T03:19:57.824Z,19.32
2022-08-17T03:20:57.808Z,19.31
2022-08-17T03:21:57.798Z,19.29
2022-08-17T03:23:01.691Z,19.29
2022-08-17T03:23:58.731Z,19.29
2022-08-17T03:24:57.739Z,19.31
2022-08-17T03:25:57.744Z,19.31
2022-08-17T03:26:57.702Z,19.31
2022-08-17T03:27:57.711Z,19.29
2022-08-17T03:28:57.731Z,19.25
2022-08-17T03:29:57.671Z,19.25
2022-08-17T03:30:57.654Z,19.28
2022-08-17T03:31:57.676Z,19.25
2022-08-17T03:32:57.621Z,19.25
2022-08-17T03:33:57.620Z,19.25
2022-08-17T03:34:57.620Z,19.25
2022-08-17T03:35:57.570Z,19.28
2022-08-17T03:36:57.569Z,19.24
2022-08-17T03:38:00.818Z,19.24
2022-08-17T03:38:57.576Z,19.24
2022-08-17T03:39:57.648Z,19.28
2022-08-17T03:40:59.900Z,19.25
2022-08-17T03:41:57.515Z,19.23
2022-08-17T03:42:57.491Z,19.24
2022-08-17T03:43:57.525Z,19.25
2022-08-17T03:44:57.862Z,19.23
2022-08-17T03:45:57.461Z,19.24
2022-08-17T03:46:57.481Z,19.24
2022-08-17T03:47:57.431Z,19.23
2022-08-17T03:48:57.423Z,19.24
2022-08-17T03:49:57.411Z,19.24
2022-08-17T03:50:57.398Z,19.24
2022-08-17T03:51:57.372Z,19.24
2022-08-17T03:52:57.533Z,19.24
2022-08-17T03:53:57.381Z,19.25
2022-08-17T03:54:57.342Z,19.25
2022-08-17T03:55:57.322Z,19.25
2022-08-17T03:56:57.312Z,19.25
2022-08-17T03:57:57.283Z,19.28
2022-08-17T03:58:57.289Z,19.28
2022-08-17T03:59:57.263Z,19.28
2022-08-17T04:00:57.330Z,19.28
2022-08-17T04:01:57.233Z,19.28
2022-08-17T04:02:57.254Z,19.28
2022-08-17T04:03:57.938Z,19.28
2022-08-17T04:04:57.212Z,19.28
2022-08-17T04:05:57.210Z,19.31
2022-08-17T04:06:57.183Z,19.31
2022-08-17T04:07:57.152Z,19.32
2022-08-17T04:08:57.160Z,19.31
2022-08-17T04:09:57.132Z,19.31
2022-08-17T04:10:57.114Z,19.28
2022-08-17T04:11:57.093Z,19.28
2022-08-17T04:12:57.121Z,19.25
2022-08-17T04:13:57.152Z,19.24
2022-08-17T04:14:57.053Z,19.24
2022-08-17T04:15:57.044Z,19.24
2022-08-17T04:16:57.035Z,19.24
2022-08-17T04:17:57.042Z,19.21
2022-08-17T04:18:57.081Z,19.17
2022-08-17T04:19:57.027Z,19.13
2022-08-17T04:20:57.081Z,19.11
2022-08-17T04:21:56.980Z,19.13
2022-08-17T04:22:56.952Z,19.11
2022-08-17T04:23:56.959Z,19.10
2022-08-17T04:24:56.955Z,19.06
2022-08-17T04:25:56.955Z,19.05
2022-08-17T04:26:56.904Z,19.05
2022-08-17T04:27:56.904Z,19.05
2022-08-17T04:28:56.868Z,19.05
2022-08-17T04:29:56.903Z,19.02
2022-08-17T04:30:56.979Z,19.01
2022-08-17T04:31:56.927Z,18.99
2022-08-17T04:33:10.938Z,18.98
2022-08-17T04:33:57.819Z,18.97
2022-08-17T04:34:56.816Z,18.95
2022-08-17T04:35:56.839Z,18.95
2022-08-17T04:36:56.855Z,18.92
2022-08-17T04:37:56.785Z,18.92
2022-08-17T04:38:58.312Z,18.90
2022-08-17T04:40:00.709Z,18.90
2022-08-17T04:40:57.712Z,18.86
2022-08-17T04:41:56.718Z,18.84
2022-08-17T04:42:59.966Z,18.80
2022-08-17T04:43:56.677Z,18.77
2022-08-17T04:44:56.676Z,18.74
2022-08-17T04:45:57.247Z,18.73
2022-08-17T04:46:56.742Z,18.73
2022-08-17T04:47:56.633Z,18.73
2022-08-17T04:48:56.675Z,18.73
2022-08-17T04:49:56.642Z,18.74
2022-08-17T04:50:56.609Z,18.74
2022-08-17T04:52:00.042Z,18.76
2022-08-17T04:52:57.863Z,18.77
2022-08-17T04:53:56.545Z,18.79
2022-08-17T04:54:56.615Z,18.82
2022-08-17T04:55:56.560Z,18.90
2022-08-17T04:56:56.498Z,19.01
2022-08-17T04:57:56.495Z,19.01
2022-08-17T04:58:56.522Z,18.95
2022-08-17T04:59:56.497Z,18.95
2022-08-17T05:00:56.541Z,19.08
2022-08-17T05:01:56.493Z,19.20
2022-08-17T05:02:56.587Z,19.23
2022-08-17T05:03:56.492Z,19.18
2022-08-17T05:04:56.390Z,19.11
2022-08-17T05:05:56.418Z,19.21
2022-08-17T05:06:56.429Z,19.46
2022-08-17T05:07:56.362Z,19.78
2022-08-17T05:08:56.350Z,20.10
2022-08-17T05:09:56.332Z,20.34
2022-08-17T05:10:56.314Z,20.65
2022-08-17T05:11:56.437Z,21.09
2022-08-17T05:12:56.310Z,21.50
2022-08-17T05:13:56.276Z,21.83
2022-08-17T05:14:56.310Z,21.90
2022-08-17T05:15:56.296Z,21.88
2022-08-17T05:16:56.272Z,21.92
2022-08-17T05:17:56.268Z,22.19
2022-08-17T05:18:56.246Z,22.50
2022-08-17T05:19:56.198Z,22.65
2022-08-17T05:20:56.168Z,22.28
2022-08-17T05:21:56.184Z,21.94
2022-08-17T05:22:56.167Z,21.92
2022-08-17T05:23:56.885Z,22.14
2022-08-17T05:24:56.167Z,22.35
2022-08-17T05:25:56.136Z,22.29
2022-08-17T05:26:56.119Z,22.16
2022-08-17T05:27:56.151Z,22.12
2022-08-17T05:28:57.045Z,22.06
2022-08-17T05:29:56.106Z,22.27
2022-08-17T05:30:56.082Z,22.46
2022-08-17T05:31:56.095Z,22.64
2022-08-17T05:32:56.030Z,22.87
2022-08-17T05:33:56.093Z,23.05
2022-08-17T05:34:56.042Z,23.43
2022-08-17T05:35:56.023Z,23.95
2022-08-17T05:36:56.031Z,24.56
2022-08-17T05:37:56.745Z,25.17
2022-08-17T05:38:56.023Z,25.62
2022-08-17T05:39:56.092Z,26.02
2022-08-17T05:40:55.987Z,26.05
2022-08-17T05:41:55.983Z,25.74
2022-08-17T05:42:55.911Z,25.46
2022-08-17T05:43:56.653Z,25.12
2022-08-17T05:44:55.944Z,24.68
2022-08-17T05:45:56.446Z,24.82
2022-08-17T05:46:55.889Z,25.25
2022-08-17T05:47:55.892Z,25.69
2022-08-17T05:48:55.852Z,26.01
2022-08-17T05:49:55.844Z,26.22
2022-08-17T05:50:55.986Z,26.62
2022-08-17T05:51:55.802Z,27.11
2022-08-17T05:52:55.797Z,27.62
2022-08-17T05:53:55.794Z,28.03
2022-08-17T05:54:55.768Z,28.07
2022-08-17T05:55:55.744Z,27.85
2022-08-17T05:56:55.736Z,28.09
2022-08-17T05:57:56.125Z,28.35
2022-08-17T05:58:55.695Z,28.63
2022-08-17T05:59:55.698Z,28.60
2022-08-17T06:00:55.746Z,28.40
2022-08-17T06:01:55.663Z,28.26
2022-08-17T06:02:55.663Z,28.10
2022-08-17T06:03:55.686Z,28.01
2022-08-17T06:04:55.662Z,27.99
2022-08-17T06:05:55.629Z,27.86
2022-08-17T06:06:55.613Z,26.54
2022-08-17T06:07:55.702Z,25.37
2022-08-17T06:08:55.579Z,24.73
2022-08-17T06:09:55.696Z,24.45
2022-08-17T06:10:55.557Z,24.64
2022-08-17T06:11:55.558Z,25.30
2022-08-17T06:12:55.569Z,25.47
2022-08-17T06:13:55.563Z,25.61
2022-08-17T06:14:55.518Z,25.59
2022-08-17T06:16:33.497Z,25.35
2022-08-17T06:16:56.517Z,25.22
2022-08-17T06:17:55.596Z,25.43
2022-08-17T06:18:55.469Z,25.62
2022-08-17T06:19:55.530Z,25.77
2022-08-17T06:20:55.462Z,25.93
2022-08-17T06:21:55.470Z,25.91
2022-08-17T06:22:55.581Z,26.54
2022-08-17T06:23:55.436Z,27.10
2022-08-17T06:24:55.381Z,27.51
2022-08-17T06:25:55.398Z,27.91
2022-08-17T06:26:55.406Z,28.13
2022-08-17T06:27:55.466Z,28.31
2022-08-17T06:28:55.385Z,28.35
2022-08-17T06:29:55.341Z,28.16
2022-08-17T06:30:59.271Z,27.95
2022-08-17T06:31:56.325Z,27.64
2022-08-17T06:32:55.297Z,27.58
2022-08-17T06:33:55.281Z,27.73
2022-08-17T06:34:55.309Z,27.73
2022-08-17T06:35:55.286Z,27.76
2022-08-17T06:36:55.283Z,27.79
2022-08-17T06:37:55.348Z,27.71
2022-08-17T06:38:55.323Z,27.62
2022-08-17T06:39:55.313Z,27.69
2022-08-17T06:40:55.192Z,27.74
2022-08-17T06:41:55.242Z,27.39
2022-08-17T06:43:06.534Z,26.87
2022-08-17T06:43:56.272Z,26.47
2022-08-17T06:44:55.212Z,26.18
2022-08-17T06:45:55.127Z,25.94
2022-08-17T06:46:55.143Z,25.72
2022-08-17T06:47:55.106Z,25.46
2022-08-17T06:48:55.127Z,25.22
2022-08-17T06:49:55.658Z,25.09
2022-08-17T06:50:55.087Z,24.97
2022-08-17T06:51:55.094Z,24.88
2022-08-17T06:52:55.059Z,24.82
2022-08-17T06:53:55.185Z,24.77
2022-08-17T06:54:55.018Z,24.77
2022-08-17T06:55:55.080Z,24.75
2022-08-17T06:56:55.493Z,24.73
2022-08-17T06:57:54.975Z,24.75
2022-08-17T06:58:55.068Z,24.82
2022-08-17T06:59:56.654Z,24.88
2022-08-17T07:00:58.614Z,24.97
2022-08-17T07:01:54.916Z,25.06
2022-08-17T07:02:54.915Z,25.12
2022-08-17T07:03:54.928Z,25.17
2022-08-17T07:04:54.907Z,25.16
2022-08-17T07:05:55.011Z,25.12
2022-08-17T07:06:55.027Z,25.09
2022-08-17T07:07:55.028Z,25.12
2022-08-17T07:08:54.856Z,25.15
2022-08-17T07:09:54.828Z,25.16
2022-08-17T07:10:54.898Z,25.15
2022-08-17T07:11:54.957Z,25.10
2022-08-17T07:12:54.778Z,25.09
2022-08-17T07:13:54.922Z,25.13
2022-08-17T07:14:54.755Z,25.15
2022-08-17T07:15:57.087Z,25.19
2022-08-17T07:16:54.738Z,25.28
2022-08-17T07:17:54.720Z,25.43
2022-08-17T07:18:54.911Z,25.57
2022-08-17T07:19:55.474Z,25.77
2022-08-17T07:20:54.695Z,25.61
2022-08-17T07:21:54.668Z,25.34
2022-08-17T07:22:59.723Z,25.19
2022-08-17T07:23:55.641Z,25.19
2022-08-17T07:24:54.654Z,25.24
2022-08-17T07:25:54.599Z,25.32
2022-08-17T07:26:54.651Z,25.44
2022-08-17T07:27:54.590Z,25.67
2022-08-17T07:28:54.581Z,25.83
2022-08-17T07:29:54.548Z,25.84
2022-08-17T07:30:54.590Z,25.68
2022-08-17T07:31:54.541Z,25.67
2022-08-17T07:32:54.539Z,25.57
2022-08-17T07:33:54.541Z,25.39
2022-08-17T07:34:54.511Z,25.17
2022-08-17T07:35:54.520Z,25.12
2022-08-17T07:36:54.490Z,25.10
2022-08-17T07:37:54.457Z,25.28
2022-08-17T07:38:54.539Z,25.50
2022-08-17T07:40:15.415Z,25.56
2022-08-17T07:40:55.411Z,25.62
2022-08-17T07:41:58.823Z,25.71
2022-08-17T07:42:55.381Z,25.75
2022-08-17T07:43:54.437Z,25.89
2022-08-17T07:44:54.429Z,25.98
2022-08-17T07:45:54.341Z,26.06
2022-08-17T07:46:54.349Z,26.25
2022-08-17T07:47:54.377Z,26.31
2022-08-17T07:48:54.311Z,26.28
2022-08-17T07:49:54.282Z,26.37
2022-08-17T07:50:54.334Z,26.46
2022-08-17T07:51:54.335Z,26.58
2022-08-17T07:52:54.298Z,26.64
2022-08-17T07:53:54.664Z,26.67
2022-08-17T07:54:55.388Z,26.77
2022-08-17T07:55:54.207Z,26.89
2022-08-17T07:56:54.265Z,26.91
2022-08-17T07:57:54.195Z,26.96
2022-08-17T07:58:54.203Z,26.98
2022-08-17T07:59:54.158Z,27.02
2022-08-17T08:00:54.245Z,27.04
2022-08-17T08:01:54.173Z,27.13
2022-08-17T08:02:54.195Z,27.17
2022-08-17T08:03:54.131Z,27.11
2022-08-17T08:05:02.095Z,27.02
2022-08-17T08:05:55.105Z,26.98
2022-08-17T08:06:54.085Z,26.80
2022-08-17T08:07:54.161Z,26.79
2022-08-17T08:08:54.047Z,26.72
2022-08-17T08:09:54.127Z,26.67
2022-08-17T08:10:54.056Z,26.68
2022-08-17T08:11:54.016Z,26.67
2022-08-17T08:12:54.036Z,26.62
2022-08-17T08:13:54.042Z,26.61
2022-08-17T08:14:53.994Z,26.58
2022-08-17T08:15:54.740Z,26.65
2022-08-17T08:16:54.089Z,26.72
2022-08-17T08:17:53.928Z,26.77
2022-08-17T08:18:56.824Z,26.81
2022-08-17T08:19:53.967Z,26.86
2022-08-17T08:20:54.196Z,26.80
2022-08-17T08:21:53.871Z,26.83
2022-08-17T08:22:54.066Z,26.91
2022-08-17T08:23:53.868Z,26.92
2022-08-17T08:24:53.908Z,26.94
2022-08-17T08:25:53.890Z,26.99
2022-08-17T08:26:53.824Z,27.06
2022-08-17T08:27:53.824Z,27.11
2022-08-17T08:28:53.999Z,27.06
2022-08-17T08:29:53.781Z,27.09
2022-08-17T08:30:53.828Z,27.09
2022-08-17T08:31:53.766Z,27.11
2022-08-17T08:32:53.774Z,27.14
2022-08-17T08:33:53.842Z,27.17
2022-08-17T08:35:02.022Z,27.16
2022-08-17T08:35:54.694Z,27.13
2022-08-17T08:37:02.149Z,26.99
2022-08-17T08:37:54.743Z,26.95
2022-08-17T08:38:53.714Z,26.95
2022-08-17T08:39:53.717Z,27.04
2022-08-17T08:40:53.703Z,27.10
2022-08-17T08:41:53.821Z,27.13
2022-08-17T08:42:53.632Z,27.24
2022-08-17T08:43:53.618Z,27.33
2022-08-17T08:45:01.121Z,27.35
2022-08-17T08:45:54.573Z,27.32
2022-08-17T08:46:53.542Z,27.29
2022-08-17T08:47:53.807Z,27.24
2022-08-17T08:48:57.855Z,27.16
2022-08-17T08:50:04.455Z,27.11
2022-08-17T08:50:54.515Z,27.13
2022-08-17T08:51:53.493Z,27.10
2022-08-17T08:52:53.592Z,27.10
2022-08-17T08:53:53.457Z,27.14
2022-08-17T08:54:53.454Z,27.10
2022-08-17T08:55:53.485Z,27.11
2022-08-17T08:57:21.869Z,27.20
2022-08-17T08:57:54.414Z,27.29
2022-08-17T08:58:53.453Z,27.31
2022-08-17T08:59:58.338Z,27.24
2022-08-17T09:00:54.470Z,27.23
2022-08-17T09:01:53.406Z,27.23
2022-08-17T09:02:53.363Z,27.21
2022-08-17T09:03:53.843Z,27.16
2022-08-17T09:05:13.499Z,27.19
2022-08-17T09:05:54.346Z,27.14
2022-08-17T09:06:53.335Z,27.06
2022-08-17T09:07:56.250Z,27.02
2022-08-17T09:08:53.282Z,27.01
2022-08-17T09:09:56.143Z,27.05
2022-08-17T09:10:54.307Z,27.06
2022-08-17T09:12:01.364Z,27.11
2022-08-17T09:12:54.410Z,27.14
2022-08-17T09:13:54.691Z,27.17
2022-08-17T09:14:54.061Z,27.19
2022-08-17T09:15:53.177Z,27.20
2022-08-17T09:16:53.219Z,27.20
2022-08-17T09:18:14.636Z,27.14
2022-08-17T09:19:00.794Z,27.10
2022-08-17T09:19:54.118Z,27.01
2022-08-17T09:20:53.243Z,26.96
2022-08-17T09:21:53.097Z,26.98
2022-08-17T09:22:53.089Z,26.98
2022-08-17T09:23:53.136Z,26.99
2022-08-17T09:24:53.098Z,26.98
2022-08-17T09:25:53.029Z,26.98
2022-08-17T09:26:53.107Z,27.01
2022-08-17T09:27:53.165Z,27.04
2022-08-17T09:28:53.089Z,27.06
2022-08-17T09:29:53.013Z,27.06
2022-08-17T09:30:53.026Z,27.04
2022-08-17T09:31:52.986Z,27.06
2022-08-17T09:32:53.044Z,27.13
2022-08-17T09:33:53.043Z,27.20
2022-08-17T09:34:52.929Z,27.29
2022-08-17T09:35:52.953Z,27.36
2022-08-17T09:36:52.933Z,27.48
2022-08-17T09:37:53.072Z,27.64
2022-08-17T09:38:52.983Z,27.73
2022-08-17T09:39:53.098Z,27.66
2022-08-17T09:40:52.821Z,27.61
2022-08-17T09:41:52.843Z,27.59
2022-08-17T09:42:52.862Z,27.62
2022-08-17T09:43:52.966Z,27.69
2022-08-17T09:44:52.856Z,27.79
2022-08-17T09:45:52.928Z,27.82
2022-08-17T09:46:52.807Z,27.84
2022-08-17T09:47:53.025Z,27.86
2022-08-17T09:48:52.743Z,27.84
2022-08-17T09:49:52.762Z,27.77
2022-08-17T09:51:03.184Z,27.64
2022-08-17T09:51:53.751Z,27.58
2022-08-17T09:52:52.668Z,27.54
2022-08-17T09:53:52.684Z,27.58
2022-08-17T09:54:52.647Z,27.62
2022-08-17T09:55:52.669Z,27.61
2022-08-17T09:57:06.016Z,27.58
2022-08-17T09:57:53.685Z,27.57
2022-08-17T09:58:52.686Z,27.53
2022-08-17T09:59:52.594Z,27.51
2022-08-17T10:00:52.619Z,27.50
2022-08-17T10:01:52.561Z,27.43
2022-08-17T10:02:52.583Z,27.41
2022-08-17T10:03:52.641Z,27.39
2022-08-17T10:04:52.535Z,27.38
2022-08-17T10:05:56.897Z,27.36
2022-08-17T10:06:52.493Z,27.36
2022-08-17T10:07:57.319Z,27.36
2022-08-17T10:08:52.709Z,27.36
2022-08-17T10:09:52.515Z,27.33
2022-08-17T10:10:56.454Z,27.31
2022-08-17T10:11:52.456Z,27.32
2022-08-17T10:12:53.145Z,27.31
2022-08-17T10:13:59.455Z,27.23
2022-08-17T10:14:53.269Z,27.16
2022-08-17T10:15:52.440Z,27.05
2022-08-17T10:16:52.365Z,26.99
2022-08-17T10:17:52.415Z,26.91
2022-08-17T10:18:52.336Z,26.80
2022-08-17T10:19:52.317Z,26.68
2022-08-17T10:20:52.320Z,26.62
2022-08-17T10:22:00.630Z,26.59
2022-08-17T10:22:55.015Z,26.58
2022-08-17T10:23:52.287Z,26.62
2022-08-17T10:25:21.453Z,26.62
2022-08-17T10:25:55.662Z,26.62
2022-08-17T10:26:56.864Z,26.62
2022-08-17T10:27:53.255Z,26.61
2022-08-17T10:28:52.239Z,26.59
2022-08-17T10:29:52.208Z,26.55
2022-08-17T10:31:01.430Z,26.36
2022-08-17T10:31:53.233Z,26.17
2022-08-17T10:32:52.205Z,26.04
2022-08-17T10:33:52.145Z,25.93
2022-08-17T10:34:52.160Z,25.93
2022-08-17T10:35:52.135Z,25.94
2022-08-17T10:36:53.133Z,25.99
2022-08-17T10:37:52.319Z,26.02
2022-08-17T10:38:52.075Z,26.05
2022-08-17T10:39:59.292Z,26.04
2022-08-17T10:40:52.100Z,26.02
2022-08-17T10:41:52.077Z,25.97
2022-08-17T10:42:52.071Z,25.90
2022-08-17T10:43:58.895Z,25.83
2022-08-17T10:44:52.998Z,25.84
2022-08-17T10:46:10.510Z,25.86
2022-08-17T10:46:53.009Z,25.89
2022-08-17T10:47:55.360Z,25.86
2022-08-17T10:48:51.950Z,25.89
2022-08-17T10:49:51.971Z,25.90
2022-08-17T10:50:51.919Z,25.94
2022-08-17T10:51:51.938Z,25.97
2022-08-17T10:53:17.935Z,25.98
2022-08-17T10:53:52.913Z,25.99
2022-08-17T10:54:51.858Z,25.99
2022-08-17T10:56:01.562Z,25.99
2022-08-17T10:56:51.867Z,25.98
2022-08-17T10:57:51.984Z,25.97
2022-08-17T10:58:51.904Z,25.97
2022-08-17T10:59:51.846Z,25.97
2022-08-17T11:00:51.944Z,25.97
2022-08-17T11:01:51.924Z,25.94
2022-08-17T11:02:51.974Z,25.94
2022-08-17T11:03:51.782Z,25.98
2022-08-17T11:04:52.070Z,25.97
2022-08-17T11:05:51.735Z,25.98
2022-08-17T11:06:51.827Z,25.99
2022-08-17T11:07:51.806Z,25.99
2022-08-17T11:08:51.683Z,25.98
2022-08-17T11:09:51.934Z,25.93
2022-08-17T11:10:52.236Z,25.89
2022-08-17T11:11:51.656Z,25.86
2022-08-17T11:12:51.762Z,25.83
2022-08-17T11:13:51.598Z,25.83
2022-08-17T11:14:51.583Z,25.77
2022-08-17T11:15:51.629Z,25.72
2022-08-17T11:16:51.594Z,25.71
2022-08-17T11:17:51.595Z,25.67
2022-08-17T11:18:51.560Z,25.67
2022-08-17T11:19:51.539Z,25.67
2022-08-17T11:20:51.555Z,25.68
2022-08-17T11:21:51.529Z,25.68
2022-08-17T11:22:51.640Z,25.69
2022-08-17T11:23:51.494Z,25.71
2022-08-17T11:24:51.490Z,25.71
2022-08-17T11:25:51.445Z,25.71
2022-08-17T11:26:51.445Z,25.72
2022-08-17T11:27:51.463Z,25.74
2022-08-17T11:28:52.737Z,25.77
2022-08-17T11:29:56.832Z,25.82
2022-08-17T11:30:52.417Z,25.83
2022-08-17T11:31:51.407Z,25.86
2022-08-17T11:32:54.423Z,25.87
2022-08-17T11:33:51.409Z,25.87
2022-08-17T11:34:51.370Z,25.87
2022-08-17T11:35:51.325Z,25.91
2022-08-17T11:36:51.335Z,25.87
2022-08-17T11:37:51.264Z,25.86
2022-08-17T11:38:51.273Z,25.82
2022-08-17T11:39:51.351Z,25.77
2022-08-17T11:40:51.226Z,25.74
2022-08-17T11:41:51.246Z,25.74
2022-08-17T11:42:51.481Z,25.68
2022-08-17T11:43:51.199Z,25.59
2022-08-17T11:44:51.282Z,25.47
2022-08-17T11:45:51.194Z,25.35
2022-08-17T11:46:51.776Z,25.19
2022-08-17T11:48:16.100Z,25.02
2022-08-17T11:48:52.202Z,24.82
2022-08-17T11:49:51.134Z,24.61
2022-08-17T11:50:51.176Z,24.44
2022-08-17T11:51:51.090Z,24.35
2022-08-17T11:52:51.076Z,24.31
2022-08-17T11:53:59.818Z,24.24
2022-08-17T11:55:34.706Z,24.20
2022-08-17T11:55:52.057Z,24.17
2022-08-17T11:56:51.058Z,24.14
2022-08-17T11:58:35.769Z,24.13
2022-08-17T11:58:52.082Z,24.12
2022-08-17T11:59:51.063Z,24.14
2022-08-17T12:00:51.087Z,24.17
2022-08-17T12:01:50.970Z,24.20
2022-08-17T12:02:51.110Z,24.23
2022-08-17T12:03:55.510Z,24.24
2022-08-17T12:04:52.019Z,24.27
2022-08-17T12:05:50.940Z,24.31
2022-08-17T12:06:51.142Z,24.32
2022-08-17T12:07:51.128Z,24.37
2022-08-17T12:08:50.868Z,24.42
2022-08-17T12:09:50.870Z,24.44
2022-08-17T12:11:18.498Z,24.44
2022-08-17T12:11:55.575Z,24.45
2022-08-17T12:12:51.861Z,24.47
2022-08-17T12:13:50.808Z,24.45
2022-08-17T12:15:09.700Z,24.47
2022-08-17T12:15:52.027Z,24.41
2022-08-17T12:16:50.815Z,24.38
2022-08-17T12:17:50.996Z,24.38
2022-08-17T12:18:50.779Z,24.37
2022-08-17T12:19:50.795Z,24.39
2022-08-17T12:20:56.058Z,24.41
2022-08-17T12:21:51.935Z,24.47
2022-08-17T12:22:50.791Z,24.53
2022-08-17T12:23:51.690Z,24.60
2022-08-17T12:24:50.643Z,24.64
2022-08-17T12:25:50.680Z,24.69
2022-08-17T12:26:50.657Z,24.71
2022-08-17T12:28:06.605Z,24.71
2022-08-17T12:28:51.619Z,24.73
2022-08-17T12:29:50.619Z,24.76
2022-08-17T12:30:51.967Z,24.76
2022-08-17T12:31:50.562Z,24.73
2022-08-17T12:32:50.683Z,24.71
2022-08-17T12:33:50.581Z,24.67
2022-08-17T12:34:50.513Z,24.67
2022-08-17T12:35:50.727Z,24.67
2022-08-17T12:36:50.480Z,24.69
2022-08-17T12:37:50.764Z,24.73
2022-08-17T12:38:50.492Z,24.82
2022-08-17T12:39:50.593Z,24.90
2022-08-17T12:40:50.433Z,24.95
2022-08-17T12:41:50.494Z,24.97
2022-08-17T12:42:50.420Z,25.01
2022-08-17T12:43:50.403Z,25.09
2022-08-17T12:44:50.861Z,25.15
2022-08-17T12:45:50.406Z,25.22
2022-08-17T12:46:50.393Z,25.28
2022-08-17T12:47:50.492Z,25.35
2022-08-17T12:48:59.157Z,25.44
2022-08-17T12:49:51.446Z,25.56
2022-08-17T12:50:50.395Z,25.69
2022-08-17T12:51:50.273Z,25.80